createdAt,value
2018-05-15T00:00:38.508Z,18.30
2018-05-15T00:03:06.567Z,18.30
2018-05-15T00:05:34.600Z,18.20
2018-05-15T00:08:02.638Z,18.20
2018-05-15T00:10:30.663Z,18.20
2018-05-15T00:12:58.719Z,18.10
2018-05-15T00:15:27.534Z,18.10
2018-05-15T00:17:55.584Z,18.10
2018-05-15T00:20:23.638Z,18.10
2018-05-15T00:22:51.689Z,18.00
2018-05-15T00:25:19.737Z,18.00
2018-05-15T00:27:47.761Z,18.00
2018-05-15T00:30:16.589Z,17.90
2018-05-15T00:32:44.635Z,17.90
2018-05-15T00:35:13.452Z,17.80
2018-05-15T00:37:41.496Z,17.80
2018-05-15T00:40:09.528Z,17.80
2018-05-15T00:42:37.609Z,17.70
2018-05-15T00:45:05.650Z,17.80
2018-05-15T00:47:33.697Z,17.70
2018-05-15T00:50:01.788Z,17.70
2018-05-15T00:52:29.793Z,17.70
2018-05-15T00:55:09.923Z,17.70
2018-05-15T00:57:37.955Z,17.60
2018-05-15T01:00:05.999Z,17.60
2018-05-15T01:02:34.048Z,17.50
2018-05-15T01:05:02.121Z,17.50
2018-05-15T01:07:30.167Z,17.50
2018-05-15T01:09:58.247Z,17.40
2018-05-15T01:12:26.266Z,17.30
2018-05-15T01:14:54.329Z,17.30
2018-05-15T01:17:23.174Z,17.30
2018-05-15T01:19:51.204Z,17.20
2018-05-15T01:22:19.275Z,17.20
2018-05-15T01:24:47.352Z,17.10
2018-05-15T01:27:16.150Z,17.10
2018-05-15T01:29:44.198Z,17.10
2018-05-15T01:32:13.014Z,17.00
2018-05-15T01:34:41.090Z,17.00
2018-05-15T01:37:09.118Z,17.00
2018-05-15T01:39:37.919Z,16.90
2018-05-15T01:42:06.752Z,16.90
2018-05-15T01:44:34.780Z,16.90
2018-05-15T01:47:03.603Z,16.90
2018-05-15T01:49:31.670Z,16.80
2018-05-15T01:51:59.705Z,16.80
2018-05-15T01:54:28.562Z,16.80
2018-05-15T01:56:56.594Z,16.80
2018-05-15T01:59:24.659Z,16.80
2018-05-15T02:01:52.737Z,16.70
2018-05-15T02:04:20.803Z,16.70
2018-05-15T02:06:48.871Z,16.70
2018-05-15T02:09:16.917Z,16.60
2018-05-15T02:11:45.739Z,16.60
2018-05-15T02:14:13.806Z,16.60
2018-05-15T02:16:41.845Z,16.50
2018-05-15T02:19:09.885Z,16.50
2018-05-15T02:21:37.931Z,16.50
2018-05-15T02:24:05.980Z,16.50
2018-05-15T02:26:34.811Z,16.50
2018-05-15T02:29:02.875Z,16.50
2018-05-15T02:31:30.925Z,16.50
2018-05-15T02:33:59.063Z,16.50
2018-05-15T02:36:27.879Z,16.50
2018-05-15T02:38:55.923Z,16.50
2018-05-15T02:41:24.742Z,16.50
2018-05-15T02:43:52.798Z,16.50
2018-05-15T02:46:20.868Z,16.50
2018-05-15T02:48:49.708Z,16.50
2018-05-15T02:51:17.761Z,16.50
2018-05-15T02:53:45.806Z,16.40
2018-05-15T02:56:14.608Z,16.40
2018-05-15T02:58:42.659Z,16.40
2018-05-15T03:01:11.495Z,16.40
2018-05-15T03:03:39.562Z,16.30
2018-05-15T03:06:07.602Z,16.40
2018-05-15T03:08:35.657Z,16.30
2018-05-15T03:11:03.706Z,16.30
2018-05-15T03:13:31.762Z,16.30
2018-05-15T03:15:59.822Z,16.30
2018-05-15T03:18:27.867Z,16.20
2018-05-15T03:20:55.927Z,16.20
2018-05-15T03:23:23.972Z,16.10
2018-05-15T03:25:52.781Z,16.00
2018-05-15T03:28:20.871Z,16.00
2018-05-15T03:30:48.923Z,16.00
2018-05-15T03:33:16.971Z,15.90
2018-05-15T03:35:45.021Z,15.90
2018-05-15T03:38:13.240Z,15.90
2018-05-15T03:40:41.276Z,15.90
2018-05-15T03:43:09.316Z,15.90
2018-05-15T03:45:37.376Z,15.90
2018-05-15T03:48:05.426Z,15.90
2018-05-15T03:50:34.269Z,16.00
2018-05-15T03:53:02.305Z,16.00
2018-05-15T03:55:30.342Z,16.00
2018-05-15T03:57:59.168Z,16.00
2018-05-15T04:00:39.026Z,16.00
2018-05-15T04:03:18.974Z,16.00
2018-05-15T04:05:58.908Z,15.90
2018-05-15T04:08:27.661Z,16.00
2018-05-15T04:10:55.756Z,16.00
2018-05-15T04:13:23.755Z,16.00
2018-05-15T04:15:52.634Z,16.00
2018-05-15T04:18:20.703Z,16.10
2018-05-15T04:20:48.822Z,16.10
2018-05-15T04:23:16.818Z,16.10
2018-05-15T04:25:45.676Z,16.20
2018-05-15T04:28:13.794Z,16.30
2018-05-15T04:30:41.785Z,16.20
2018-05-15T04:33:09.845Z,16.20
2018-05-15T04:35:37.868Z,16.20
2018-05-15T04:38:05.927Z,16.20
2018-05-15T04:40:33.990Z,16.30
2018-05-15T04:43:02.024Z,16.30
2018-05-15T04:45:30.123Z,16.30
2018-05-15T04:47:58.182Z,16.40
2018-05-15T04:50:26.223Z,16.30
2018-05-15T04:52:55.042Z,16.30
2018-05-15T04:55:23.071Z,16.30
2018-05-15T04:57:51.893Z,16.20
2018-05-15T05:00:19.989Z,16.20
2018-05-15T05:02:48.069Z,16.20
2018-05-15T05:05:16.134Z,16.20
2018-05-15T05:07:44.930Z,16.10
2018-05-15T05:10:12.994Z,16.20
2018-05-15T05:12:41.035Z,16.20
2018-05-15T05:15:09.187Z,16.20
2018-05-15T05:20:06.587Z,16.20
2018-05-15T05:22:34.685Z,16.40
2018-05-15T05:25:02.750Z,16.50
2018-05-15T05:27:30.793Z,16.70
2018-05-15T05:29:58.954Z,16.70
2018-05-15T05:32:26.974Z,16.80
2018-05-15T05:34:55.022Z,18.50
2018-05-15T05:37:23.095Z,18.50
2018-05-15T05:39:51.149Z,20.30
2018-05-15T05:42:20.026Z,23.20
2018-05-15T05:44:48.050Z,23.10
2018-05-15T05:47:16.170Z,24.20
2018-05-15T05:49:44.185Z,25.10
2018-05-15T05:52:12.257Z,26.20
2018-05-15T05:54:40.318Z,26.90
2018-05-15T05:57:08.367Z,27.50
2018-05-15T05:59:37.804Z,28.30
2018-05-15T06:02:06.319Z,29.10
2018-05-15T06:04:34.453Z,29.50
2018-05-15T06:07:03.099Z,29.80
2018-05-15T06:09:31.186Z,30.70
2018-05-15T06:11:59.217Z,31.00
2018-05-15T06:14:28.087Z,31.50
2018-05-15T06:16:56.174Z,31.90
2018-05-15T06:19:24.209Z,31.90
2018-05-15T06:21:52.277Z,32.40
2018-05-15T06:24:20.354Z,33.10
2018-05-15T06:26:48.401Z,33.40
2018-05-15T06:29:17.305Z,33.70
2018-05-15T06:31:46.077Z,34.20
2018-05-15T06:34:14.150Z,34.40
2018-05-15T06:36:42.970Z,34.60
2018-05-15T06:39:11.321Z,35.10
2018-05-15T06:41:39.395Z,35.50
2018-05-15T06:44:07.470Z,35.80
2018-05-15T06:46:35.545Z,35.70
2018-05-15T06:49:03.602Z,35.80
2018-05-15T06:51:31.681Z,36.10
2018-05-15T06:53:59.788Z,36.20
2018-05-15T06:56:27.831Z,36.40
2018-05-15T06:58:55.894Z,36.50
2018-05-15T07:01:24.703Z,37.10
2018-05-15T07:03:53.765Z,37.60
2018-05-15T07:06:21.836Z,37.80
2018-05-15T07:08:50.645Z,38.00
2018-05-15T07:11:18.828Z,37.90
2018-05-15T07:13:46.879Z,38.30
2018-05-15T07:16:14.951Z,38.80
2018-05-15T07:18:43.076Z,39.10
2018-05-15T07:21:11.148Z,39.20
2018-05-15T07:23:39.219Z,39.20
2018-05-15T07:26:07.248Z,39.30
2018-05-15T07:28:35.292Z,39.50
2018-05-15T07:31:03.366Z,39.40
2018-05-15T07:33:31.464Z,39.40
2018-05-15T07:35:59.532Z,39.90
2018-05-15T07:38:27.585Z,40.00
2018-05-15T07:40:55.708Z,40.00
2018-05-15T07:43:23.754Z,40.30
2018-05-15T07:45:51.828Z,40.70
2018-05-15T07:48:19.964Z,40.80
2018-05-15T07:50:49.070Z,40.90
2018-05-15T07:53:17.180Z,40.70
2018-05-15T07:55:45.237Z,40.60
2018-05-15T07:58:13.294Z,40.60
2018-05-15T08:00:41.390Z,41.10
2018-05-15T08:03:10.242Z,41.20
2018-05-15T08:05:40.034Z,41.00
2018-05-15T08:08:08.467Z,40.50
2018-05-15T08:10:36.580Z,39.60
2018-05-15T08:13:04.682Z,39.10
2018-05-15T08:15:32.776Z,39.30
2018-05-15T08:18:00.851Z,39.30
2018-05-15T08:20:28.923Z,39.60
2018-05-15T08:22:56.977Z,41.00
2018-05-15T08:25:25.059Z,41.90
2018-05-15T08:27:53.107Z,42.60
2018-05-15T08:30:21.197Z,42.60
2018-05-15T08:32:49.249Z,42.00
2018-05-15T08:35:17.292Z,41.90
2018-05-15T08:37:45.778Z,42.30
2018-05-15T08:40:13.831Z,42.90
2018-05-15T08:42:41.906Z,42.90
2018-05-15T08:45:09.971Z,43.60
2018-05-15T08:47:38.015Z,43.80
2018-05-15T08:50:06.078Z,43.80
2018-05-15T08:52:34.149Z,43.80
2018-05-15T08:55:03.004Z,43.20
2018-05-15T08:57:31.831Z,43.40
2018-05-15T08:59:59.878Z,43.30
2018-05-15T09:02:28.936Z,43.80
2018-05-15T09:04:56.995Z,43.80
2018-05-15T09:07:25.031Z,43.60
2018-05-15T09:09:53.090Z,44.10
2018-05-15T09:12:21.147Z,44.40
2018-05-15T09:14:49.951Z,44.70
2018-05-15T09:17:18.837Z,45.00
2018-05-15T09:19:46.860Z,45.30
2018-05-15T09:22:16.094Z,45.30
2018-05-15T09:24:44.132Z,45.40
2018-05-15T09:27:12.198Z,45.60
2018-05-15T09:29:40.238Z,45.40
2018-05-15T09:32:08.290Z,45.50
2018-05-15T09:34:36.344Z,45.20
2018-05-15T09:37:05.167Z,45.00
2018-05-15T09:42:07.686Z,44.00
2018-05-15T09:44:35.751Z,43.80
2018-05-15T09:47:03.820Z,44.10
2018-05-15T09:49:31.887Z,44.30
2018-05-15T09:51:59.926Z,45.10
2018-05-15T09:54:27.977Z,46.20
2018-05-15T09:56:57.811Z,46.10
2018-05-15T09:59:26.629Z,46.20
2018-05-15T10:01:54.739Z,46.20
2018-05-15T10:04:22.783Z,46.40
2018-05-15T10:06:51.268Z,46.20
2018-05-15T10:09:19.319Z,46.20
2018-05-15T10:11:47.417Z,46.50
2018-05-15T10:14:16.758Z,46.70
2018-05-15T10:16:44.762Z,42.40
2018-05-15T10:19:12.804Z,39.90
2018-05-15T10:21:41.650Z,37.80
2018-05-15T10:24:09.699Z,36.50
2018-05-15T10:26:37.764Z,36.30
2018-05-15T10:29:05.815Z,35.10
2018-05-15T10:31:33.953Z,34.90
2018-05-15T10:34:02.044Z,34.90
2018-05-15T10:36:30.878Z,35.20
2018-05-15T10:38:58.930Z,35.20
2018-05-15T10:41:26.995Z,36.40
2018-05-15T10:43:55.148Z,38.20
2018-05-15T10:46:23.879Z,38.30
2018-05-15T10:48:51.961Z,37.60
2018-05-15T10:51:20.006Z,36.40
2018-05-15T10:53:48.077Z,35.10
2018-05-15T10:56:16.119Z,34.20
2018-05-15T11:01:13.486Z,32.90
2018-05-15T11:03:41.538Z,32.40
2018-05-15T11:06:09.706Z,32.10
2018-05-15T11:08:37.660Z,31.90
2018-05-15T11:11:05.727Z,31.80
2018-05-15T11:13:33.829Z,32.10
2018-05-15T11:16:02.325Z,32.90
2018-05-15T11:18:47.834Z,33.70
2018-05-15T11:24:35.265Z,35.20
2018-05-15T11:27:03.311Z,35.20
2018-05-15T11:29:31.348Z,35.10
2018-05-15T11:31:59.428Z,33.80
2018-05-15T11:34:27.474Z,32.10
2018-05-15T11:36:55.539Z,31.80
2018-05-15T11:39:23.626Z,30.70
2018-05-15T11:41:51.760Z,30.20
2018-05-15T11:44:19.777Z,30.20
2018-05-15T11:46:47.835Z,30.60
2018-05-15T11:49:16.566Z,31.60
2018-05-15T11:51:44.653Z,31.60
2018-05-15T11:54:12.032Z,32.30
2018-05-15T11:56:40.121Z,33.30
2018-05-15T11:59:08.929Z,33.20
2018-05-15T12:01:37.027Z,32.70
2018-05-15T12:04:05.127Z,32.30
2018-05-15T12:06:33.158Z,31.80
2018-05-15T12:09:01.213Z,31.30
2018-05-15T12:11:29.232Z,31.30
2018-05-15T12:13:57.307Z,31.60
2018-05-15T12:16:26.129Z,31.80
2018-05-15T12:18:54.170Z,32.00
2018-05-15T12:21:23.004Z,32.10
2018-05-15T12:23:51.111Z,32.00
2018-05-15T12:26:19.184Z,32.00
2018-05-15T12:28:47.317Z,32.10
2018-05-15T12:31:15.370Z,32.10
2018-05-15T12:33:43.410Z,32.00
2018-05-15T12:36:12.252Z,31.40
2018-05-15T12:38:40.299Z,31.20
2018-05-15T12:41:08.355Z,31.00
2018-05-15T12:43:37.212Z,30.90
2018-05-15T12:46:05.292Z,31.10
2018-05-15T12:48:34.452Z,31.10
2018-05-15T12:51:02.547Z,31.10
2018-05-15T12:53:30.576Z,31.10
2018-05-15T12:55:58.662Z,31.10
2018-05-15T12:58:27.494Z,31.10
2018-05-15T13:00:56.306Z,31.10
2018-05-15T13:03:25.196Z,30.90
2018-05-15T13:05:53.994Z,30.70
2018-05-15T13:08:22.071Z,30.40
2018-05-15T13:10:50.118Z,30.30
2018-05-15T13:13:19.018Z,30.30
2018-05-15T13:15:47.049Z,30.30
2018-05-15T13:18:15.135Z,30.30
2018-05-15T13:20:43.202Z,30.30
2018-05-15T13:23:11.249Z,30.30
2018-05-15T13:25:39.305Z,30.10
2018-05-15T13:28:07.373Z,30.00
2018-05-15T13:30:35.452Z,30.00
2018-05-15T13:33:03.537Z,30.10
2018-05-15T13:35:31.665Z,30.20
2018-05-15T13:38:01.459Z,30.30
2018-05-15T13:40:29.532Z,30.30
2018-05-15T13:42:58.436Z,30.30
2018-05-15T13:45:26.451Z,30.20
2018-05-15T13:47:54.542Z,30.10
2018-05-15T13:50:22.602Z,29.70
2018-05-15T13:52:50.685Z,29.60
2018-05-15T13:55:18.758Z,28.30
2018-05-15T13:57:46.867Z,29.60
2018-05-15T14:00:14.921Z,29.90
2018-05-15T14:02:42.998Z,30.00
2018-05-15T14:05:11.815Z,30.00
2018-05-15T14:07:39.871Z,30.00
2018-05-15T14:10:07.925Z,30.00
2018-05-15T14:12:38.016Z,30.00
2018-05-15T14:15:06.036Z,30.00
2018-05-15T14:17:34.145Z,30.00
2018-05-15T14:20:02.203Z,29.90
2018-05-15T14:22:31.405Z,29.80
2018-05-15T14:25:00.151Z,30.50
2018-05-15T14:27:28.983Z,29.40
2018-05-15T14:29:57.050Z,29.30
2018-05-15T14:32:25.113Z,29.20
2018-05-15T14:34:53.181Z,29.10
2018-05-15T14:37:21.940Z,29.10
2018-05-15T14:39:50.784Z,29.20
2018-05-15T14:42:30.857Z,28.90
2018-05-15T14:44:59.656Z,28.70
2018-05-15T14:47:27.729Z,28.70
2018-05-15T14:49:55.786Z,28.50
2018-05-15T14:52:23.878Z,28.20
2018-05-15T14:54:51.932Z,28.20
2018-05-15T14:57:20.000Z,28.30
2018-05-15T14:59:48.084Z,28.30
2018-05-15T15:02:16.122Z,28.40
2018-05-15T15:04:44.198Z,28.50
2018-05-15T15:07:12.252Z,28.50
2018-05-15T15:12:09.637Z,28.50
2018-05-15T15:14:38.445Z,28.50
2018-05-15T15:17:06.525Z,28.50
2018-05-15T15:19:34.579Z,28.50
2018-05-15T15:22:02.665Z,28.40
2018-05-15T15:24:31.457Z,28.40
2018-05-15T15:26:59.560Z,28.40
2018-05-15T15:29:27.582Z,28.40
2018-05-15T15:31:55.659Z,28.40
2018-05-15T15:34:23.725Z,28.40
2018-05-15T15:36:53.353Z,28.50
2018-05-15T15:39:21.405Z,28.50
2018-05-15T15:41:49.465Z,28.50
2018-05-15T15:44:17.534Z,28.50
2018-05-15T15:46:45.618Z,28.40
2018-05-15T15:49:13.676Z,28.20
2018-05-15T15:51:41.737Z,28.10
2018-05-15T15:54:09.805Z,28.00
2018-05-15T15:56:37.881Z,28.00
2018-05-15T15:59:05.930Z,27.90
2018-05-15T16:01:34.016Z,27.90
2018-05-15T16:04:03.446Z,28.00
2018-05-15T16:06:31.470Z,28.00
2018-05-15T16:08:59.519Z,29.60
2018-05-15T16:11:28.364Z,27.70
2018-05-15T16:13:57.188Z,27.70
2018-05-15T16:16:25.254Z,27.70
2018-05-15T16:18:53.310Z,27.60
2018-05-15T16:21:21.370Z,27.70
2018-05-15T16:23:50.041Z,27.60
2018-05-15T16:26:18.085Z,27.50
2018-05-15T16:28:46.911Z,27.40
2018-05-15T16:31:14.960Z,27.40
2018-05-15T16:33:43.030Z,27.30
2018-05-15T16:36:11.088Z,27.10
2018-05-15T16:38:39.134Z,27.00
2018-05-15T16:41:07.204Z,26.80
2018-05-15T16:43:35.360Z,26.70
2018-05-15T16:46:03.348Z,26.50
2018-05-15T16:48:31.425Z,26.40
2018-05-15T16:51:00.850Z,26.40
2018-05-15T16:53:29.071Z,26.30
2018-05-15T16:55:57.842Z,26.30
2018-05-15T16:58:25.902Z,26.30
2018-05-15T17:00:54.331Z,26.30
2018-05-15T17:03:22.421Z,26.20
2018-05-15T17:05:52.020Z,26.00
2018-05-15T17:08:20.479Z,26.00
2018-05-15T17:10:48.526Z,26.00
2018-05-15T17:13:16.659Z,25.90
2018-05-15T17:15:45.413Z,25.80
2018-05-15T17:18:13.485Z,25.70
2018-05-15T17:20:41.526Z,25.60
2018-05-15T17:23:09.595Z,25.50
2018-05-15T17:25:37.637Z,25.40
2018-05-15T17:28:06.456Z,25.40
2018-05-15T17:30:34.889Z,25.20
2018-05-15T17:33:04.314Z,24.70
2018-05-15T17:35:32.382Z,24.00
2018-05-15T17:38:01.184Z,23.00
2018-05-15T17:40:29.247Z,22.40
2018-05-15T17:42:57.314Z,22.00
2018-05-15T17:45:29.038Z,21.50
2018-05-15T17:47:57.143Z,21.00
2018-05-15T17:50:26.078Z,20.50
2018-05-15T17:52:54.151Z,20.30
2018-05-15T17:55:22.180Z,20.20
2018-05-15T17:57:50.260Z,20.30
2018-05-15T18:00:18.310Z,20.40
2018-05-15T18:02:47.150Z,20.60
2018-05-15T18:05:15.207Z,20.80
2018-05-15T18:07:43.456Z,20.80
2018-05-15T18:10:11.467Z,21.00
2018-05-15T18:12:39.516Z,21.10
2018-05-15T18:15:07.603Z,21.20
2018-05-15T18:17:35.655Z,21.30
2018-05-15T18:20:03.758Z,21.40
2018-05-15T18:22:32.481Z,21.50
2018-05-15T18:25:01.319Z,21.50
2018-05-15T18:27:29.903Z,21.50
2018-05-15T18:29:57.871Z,21.30
2018-05-15T18:32:25.942Z,21.20
2018-05-15T18:34:54.052Z,21.00
2018-05-15T18:37:22.118Z,20.80
2018-05-15T18:39:50.172Z,20.50
2018-05-15T18:42:18.250Z,20.60
2018-05-15T18:44:46.325Z,20.60
2018-05-15T18:47:14.400Z,20.50
2018-05-15T18:49:42.456Z,20.50
2018-05-15T18:52:10.542Z,20.50
2018-05-15T18:54:38.599Z,20.60
2018-05-15T18:57:10.010Z,20.70
2018-05-15T18:59:38.848Z,20.90
2018-05-15T19:02:06.898Z,20.80
2018-05-15T19:04:34.969Z,20.80
2018-05-15T19:07:03.042Z,20.70
2018-05-15T19:09:31.109Z,20.70
2018-05-15T19:11:59.171Z,20.60
2018-05-15T19:14:27.201Z,20.70
2018-05-15T19:16:56.022Z,20.80
2018-05-15T19:19:24.158Z,20.70
2018-05-15T19:21:52.896Z,20.90
2018-05-15T19:24:20.949Z,20.90
2018-05-15T19:26:49.851Z,21.00
2018-05-15T19:29:18.666Z,21.10
2018-05-15T19:31:57.409Z,21.00
2018-05-15T19:34:25.453Z,21.10
2018-05-15T19:36:59.240Z,21.20
2018-05-15T19:39:33.301Z,21.20
2018-05-15T19:42:01.342Z,21.20
2018-05-15T19:44:29.396Z,21.20
2018-05-15T19:46:57.446Z,21.20
2018-05-15T19:49:25.509Z,21.20
2018-05-15T19:51:54.487Z,21.00
2018-05-15T19:54:22.632Z,21.00
2018-05-15T19:56:50.795Z,20.80
2018-05-15T19:59:18.776Z,20.30
2018-05-15T20:01:46.868Z,19.80
2018-05-15T20:04:14.895Z,19.30
2018-05-15T20:06:42.936Z,19.00
2018-05-15T20:09:11.780Z,18.70
2018-05-15T20:11:39.846Z,18.70
2018-05-15T20:14:07.882Z,18.80
2018-05-15T20:16:35.928Z,18.80
2018-05-15T20:19:04.766Z,18.90
2018-05-15T20:21:32.814Z,18.80
2018-05-15T20:24:00.895Z,18.70
2018-05-15T20:26:28.945Z,18.70
2018-05-15T20:28:57.021Z,18.50
2018-05-15T20:31:25.888Z,18.40
2018-05-15T20:33:54.732Z,18.40
2018-05-15T20:36:22.783Z,18.40
2018-05-15T20:38:50.828Z,18.30
2018-05-15T20:41:18.899Z,18.20
2018-05-15T20:43:47.769Z,18.20
2018-05-15T20:46:15.799Z,18.10
2018-05-15T20:48:43.858Z,18.20
2018-05-15T20:51:11.921Z,18.10
2018-05-15T20:53:39.992Z,18.00
2018-05-15T20:56:08.051Z,17.80
2018-05-15T20:58:36.883Z,17.70
2018-05-15T21:01:04.989Z,17.70
2018-05-15T21:03:33.036Z,17.30
2018-05-15T21:06:01.068Z,17.10
2018-05-15T21:08:29.221Z,16.80
2018-05-15T21:10:58.055Z,16.70
2018-05-15T21:13:26.122Z,16.70
2018-05-15T21:15:54.174Z,16.70
2018-05-15T21:18:22.227Z,16.70
2018-05-15T21:20:51.063Z,16.80
2018-05-15T21:23:19.109Z,16.80
2018-05-15T21:25:47.232Z,16.90
2018-05-15T21:28:15.268Z,16.90
2018-05-15T21:30:43.891Z,16.90
2018-05-15T21:33:11.962Z,17.00
2018-05-15T21:35:40.049Z,17.00
2018-05-15T21:38:08.087Z,17.10
2018-05-15T21:40:36.947Z,17.20
2018-05-15T21:43:05.469Z,17.20
2018-05-15T21:45:33.549Z,17.30
2018-05-15T21:48:01.604Z,17.40
2018-05-15T21:50:29.640Z,17.40
2018-05-15T21:52:57.708Z,17.40
2018-05-15T21:55:25.758Z,17.40
2018-05-15T21:57:54.583Z,17.50
2018-05-15T22:00:22.642Z,17.50
2018-05-15T22:02:50.700Z,17.60
2018-05-15T22:05:18.733Z,17.60
2018-05-15T22:07:46.795Z,17.60
2018-05-15T22:10:14.859Z,17.70
2018-05-15T22:12:54.822Z,17.70
2018-05-15T22:15:34.673Z,17.70
2018-05-15T22:18:14.558Z,17.70
2018-05-15T22:20:54.471Z,17.60
2018-05-15T22:23:22.817Z,17.70
2018-05-15T22:25:50.871Z,17.70
2018-05-15T22:28:18.969Z,17.70
2018-05-15T22:30:47.007Z,17.80
2018-05-15T22:33:15.805Z,17.80
2018-05-15T22:35:43.878Z,17.70
2018-05-15T22:38:11.930Z,17.70
2018-05-15T22:40:39.999Z,17.60
2018-05-15T22:43:08.858Z,17.50
2018-05-15T22:45:36.915Z,17.40
2018-05-15T22:48:05.012Z,17.40
2018-05-15T22:50:33.047Z,17.30
2018-05-15T22:53:01.103Z,17.30
2018-05-15T22:55:29.139Z,17.20
2018-05-15T22:57:57.982Z,17.20
2018-05-15T23:00:26.023Z,17.10
2018-05-15T23:02:54.082Z,17.10
2018-05-15T23:05:22.182Z,17.10
2018-05-15T23:07:50.228Z,17.10
2018-05-15T23:10:18.321Z,17.00
2018-05-15T23:12:46.373Z,17.00
2018-05-15T23:15:14.448Z,17.00
2018-05-15T23:17:42.520Z,16.90
2018-05-15T23:20:10.581Z,16.80
2018-05-15T23:22:43.071Z,16.80
2018-05-15T23:25:11.234Z,16.80
2018-05-15T23:27:39.245Z,16.80
2018-05-15T23:30:07.314Z,16.80
2018-05-15T23:32:35.369Z,16.80
2018-05-15T23:35:03.416Z,16.80
2018-05-15T23:37:31.506Z,16.80
2018-05-15T23:39:59.570Z,16.70
2018-05-15T23:42:28.561Z,16.70
2018-05-15T23:44:56.654Z,16.70
2018-05-15T23:47:24.727Z,16.60
2018-05-15T23:49:52.779Z,16.50
2018-05-15T23:52:20.859Z,16.50
2018-05-15T23:54:48.900Z,16.50
2018-05-15T23:57:17.002Z,16.50
2018-05-15T23:59:45.047Z,16.60
